Time;durP1;ratioP1;P1;durP2;ratioP2;P2;SDS_P1;SDS_P2;PMS_P1;PMS_P2;Temp;Humidity;BMP_temperature;BMP_pressure;BME280_temperature;BME280_humidity;BME280_pressure;Samples;Min_cycle;Max_cycle;Signal;HPM_P1;HPM_P2
2023/05/26 00:00:21;;;;;;;21.83;6.93;;;13.20;99.90;;;;;;5075338;28;20025;-75
2023/05/26 00:02:48;;;;;;;20.90;6.83;;;13.20;99.90;;;;;;5057073;28;20033;-75
2023/05/26 00:05:16;;;;;;;25.57;7.63;;;13.20;99.90;;;;;;5058516;28;20021;-75
2023/05/26 00:07:44;;;;;;;22.90;7.03;;;13.00;99.90;;;;;;5058512;28;20052;-75
2023/05/26 00:10:20;;;;;;;23.67;7.47;;;13.10;99.90;;;;;;5058285;28;20021;-74
2023/05/26 00:12:48;;;;;;;20.23;6.50;;;12.90;99.90;;;;;;5057020;28;20025;-75
2023/05/26 00:15:16;;;;;;;23.07;7.67;;;12.90;99.90;;;;;;5056437;28;20093;-75
2023/05/26 00:17:50;;;;;;;21.03;7.37;;;12.90;99.90;;;;;;5057392;28;20017;-75
2023/05/26 00:20:26;;;;;;;;;;;;;;;;;;;;;
2023/05/26 00:22:57;;;;;;;17.33;6.90;;;13.00;99.90;;;;;;5075789;28;20044;-75
2023/05/26 00:25:40;;;;;;;;;;;;;;;;;;;;;
2023/05/26 00:28:11;;;;;;;22.90;7.20;;;13.00;99.90;;;;;;5075755;28;20279;-75
2023/05/26 00:30:51;;;;;;;21.13;8.07;;;12.90;99.90;;;;;;5058295;28;20037;-75
2023/05/26 00:33:27;;;;;;;18.43;7.67;;;13.00;99.90;;;;;;5056403;28;20017;-75
2023/05/26 00:36:00;;;;;;;21.93;8.10;;;12.90;99.90;;;;;;5057877;28;20060;-75
2023/05/26 00:38:27;;;;;;;26.93;8.40;;;12.90;99.90;;;;;;5056753;28;20045;-75
2023/05/26 00:40:56;;;;;;;18.63;7.90;;;12.80;99.90;;;;;;5074981;28;20033;-75
2023/05/26 00:43:21;;;;;;;22.60;8.13;;;12.70;99.90;;;;;;5057645;28;20073;-74
2023/05/26 00:45:47;;;;;;;21.43;7.37;;;12.70;99.90;;;;;;5057744;28;20055;-75
2023/05/26 00:48:16;;;;;;;22.47;6.83;;;12.70;99.90;;;;;;5057639;28;20988;-75
2023/05/26 00:50:44;;;;;;;17.60;7.37;;;12.60;99.90;;;;;;5075254;28;20229;-75
2023/05/26 00:53:12;;;;;;;24.90;7.03;;;12.50;99.90;;;;;;5057316;28;20020;-75
2023/05/26 00:55:38;;;;;;;29.93;7.23;;;12.50;99.90;;;;;;5057775;28;20025;-75
2023/05/26 00:58:07;;;;;;;21.10;7.10;;;12.40;99.90;;;;;;5057548;28;20029;-75
2023/05/26 01:00:36;;;;;;;26.83;7.83;;;12.40;99.90;;;;;;5057514;28;20020;-74
2023/05/26 01:03:11;;;;;;;27.13;7.93;;;12.40;99.90;;;;;;5057587;28;20112;-75
2023/05/26 01:05:37;;;;;;;23.77;7.63;;;12.30;99.90;;;;;;5057030;28;20029;-74
2023/05/26 01:08:03;;;;;;;26.43;7.90;;;12.30;99.90;;;;;;5057284;28;20036;-74
2023/05/26 01:10:36;;;;;;;27.80;7.40;;;12.30;99.90;;;;;;5057484;28;20025;-75
2023/05/26 01:13:27;;;;;;;29.60;7.53;;;12.20;99.90;;;;;;5057750;28;20025;-75
2023/05/26 01:16:03;;;;;;;29.20;8.03;;;12.20;99.90;;;;;;5056922;28;20032;-75
2023/05/26 01:22:00;;;;;;;32.23;7.77;;;12.20;99.90;;;;;;5074457;28;20013;-75
2023/05/26 01:24:42;;;;;;;31.33;7.77;;;12.10;99.90;;;;;;5074722;28;20009;-74
2023/05/26 01:27:55;;;;;;;29.27;6.93;;;12.10;99.90;;;;;;5056616;28;20033;-75
2023/05/26 01:30:21;;;;;;;36.30;7.03;;;12.00;99.90;;;;;;5056630;28;20052;-75
2023/05/26 01:32:49;;;;;;;30.73;7.40;;;12.00;99.90;;;;;;5074122;28;20028;-75
2023/05/26 01:35:17;;;;;;;26.60;6.73;;;12.10;99.90;;;;;;5072438;28;20103;-75
2023/05/26 01:37:46;;;;;;;25.40;7.00;;;11.90;99.90;;;;;;5074171;28;20021;-75
2023/05/26 01:40:20;;;;;;;30.80;7.07;;;11.90;99.90;;;;;;5056163;28;20036;-75
2023/05/26 01:42:57;;;;;;;28.60;6.37;;;11.90;99.90;;;;;;5056017;28;20459;-76
2023/05/26 01:45:34;;;;;;;39.10;7.70;;;11.90;99.90;;;;;;5073597;28;20060;-75
2023/05/26 01:48:14;;;;;;;27.30;6.40;;;11.90;99.90;;;;;;5056419;28;20040;-74
2023/05/26 01:50:45;;;;;;;26.33;5.87;;;11.70;99.90;;;;;;5073915;28;20041;-75
2023/05/26 01:53:31;;;;;;;26.47;6.87;;;11.70;99.90;;;;;;5055039;28;20037;-74
2023/05/26 01:56:02;;;;;;;29.33;6.43;;;11.40;99.90;;;;;;5056401;28;20036;-75
2023/05/26 01:58:35;;;;;;;28.70;6.60;;;11.60;99.90;;;;;;5072387;28;20049;-75
2023/05/26 02:01:03;;;;;;;23.38;6.95;;;11.60;99.90;;;;;;5074138;28;20032;-75
2023/05/26 02:03:35;;;;;;;29.60;6.67;;;11.60;99.90;;;;;;5055579;28;20044;-74
2023/05/26 02:08:37;;;;;;;30.27;7.53;;;11.50;99.90;;;;;;5084908;22;20049;-75
2023/05/26 02:11:07;;;;;;;28.43;6.80;;;11.50;99.90;;;;;;5052498;28;20039;-75
2023/05/26 02:13:43;;;;;;;29.13;6.57;;;11.40;99.90;;;;;;5035460;28;20005;-75
2023/05/26 02:16:11;;;;;;;28.23;6.90;;;11.40;99.90;;;;;;5053013;28;20017;-75
2023/05/26 02:18:46;;;;;;;25.90;5.97;;;11.40;99.90;;;;;;5036312;28;20014;-75
2023/05/26 02:21:18;;;;;;;27.47;6.23;;;11.40;99.90;;;;;;5052364;28;20010;-75
2023/05/26 02:23:50;;;;;;;35.10;6.22;;;11.50;99.90;;;;;;5052094;28;20048;-75
2023/05/26 02:26:21;;;;;;;;;;;11.30;99.90;;;;;;5051531;28;20029;-74
2023/05/26 02:28:55;;;;;;;36.40;6.30;;;11.30;99.90;;;;;;5052743;28;19905;-75
2023/05/26 02:31:23;;;;;;;31.47;6.10;;;11.20;99.90;;;;;;5034578;28;20052;-75
2023/05/26 02:34:10;;;;;;;;;;;;;;;;;;;;;
2023/05/26 02:36:49;;;;;;;25.80;6.03;;;11.10;99.90;;;;;;5052575;28;20060;-75
2023/05/26 02:39:22;;;;;;;28.07;5.50;;;11.10;99.90;;;;;;5050700;28;20049;-75
2023/05/26 02:41:50;;;;;;;24.63;5.67;;;11.10;99.90;;;;;;5034793;28;20036;-75
2023/05/26 02:44:26;;;;;;;29.97;6.10;;;11.10;99.90;;;;;;5051584;28;20049;-75
2023/05/26 02:46:54;;;;;;;23.83;6.37;;;11.00;99.90;;;;;;5051368;28;20041;-75
2023/05/26 02:49:29;;;;;;;34.23;6.57;;;11.10;99.90;;;;;;5034668;28;20064;-75
2023/05/26 02:51:57;;;;;;;28.13;5.40;;;11.00;99.90;;;;;;5051814;28;20018;-75
2023/05/26 02:54:28;;;;;;;29.97;7.47;;;10.90;99.90;;;;;;5050013;28;20025;-75
2023/05/26 02:56:56;;;;;;;23.67;5.33;;;10.80;99.90;;;;;;5033953;28;20064;-75
2023/05/26 02:59:30;;;;;;;25.67;6.00;;;10.90;99.90;;;;;;5033343;28;20045;-77
2023/05/26 03:01:58;;;;;;;23.33;5.90;;;10.90;99.90;;;;;;5034677;28;20087;-76
2023/05/26 03:04:26;;;;;;;28.20;6.40;;;10.70;99.90;;;;;;5034529;28;20125;-74
2023/05/26 03:06:54;;;;;;;30.33;6.33;;;10.70;99.90;;;;;;5052696;28;20021;-75
2023/05/26 03:09:29;;;;;;;35.17;6.63;;;10.70;99.90;;;;;;5052906;28;20045;-74
2023/05/26 03:12:03;;;;;;;27.23;5.67;;;10.40;99.90;;;;;;5051061;28;20017;-75
2023/05/26 03:14:28;;;;;;;27.40;6.57;;;10.50;99.90;;;;;;5034900;28;20017;-75
2023/05/26 03:16:56;;;;;;;33.47;6.10;;;10.50;99.90;;;;;;5034554;28;20353;-75
2023/05/26 03:19:32;;;;;;;29.17;6.00;;;10.50;99.90;;;;;;5051767;28;20026;-75
2023/05/26 03:22:01;;;;;;;33.27;6.40;;;10.50;99.90;;;;;;5050885;28;20013;-75
2023/05/26 03:24:29;;;;;;;34.97;6.80;;;10.40;99.90;;;;;;5050860;28;20026;-76
2023/05/26 03:26:58;;;;;;;31.10;5.87;;;10.30;99.90;;;;;;5052549;28;20010;-75
2023/05/26 03:29:27;;;;;;;25.00;5.77;;;10.30;99.90;;;;;;5051951;28;20048;-75
2023/05/26 03:31:53;;;;;;;33.67;7.63;;;10.20;99.90;;;;;;5052751;28;20025;-76
2023/05/26 03:34:21;;;;;;;30.60;5.70;;;10.30;99.90;;;;;;5035225;28;20045;-75
2023/05/26 03:36:52;;;;;;;30.67;6.07;;;10.20;99.90;;;;;;5051643;28;20108;-76
2023/05/26 03:39:24;;;;;;;27.20;5.53;;;10.20;99.90;;;;;;5052221;28;20085;-75
2023/05/26 03:41:53;;;;;;;40.28;7.40;;;10.10;99.90;;;;;;5052002;28;20040;-75
2023/05/26 03:44:22;;;;;;;36.90;6.70;;;10.20;99.90;;;;;;5035557;28;20021;-75
2023/05/26 03:46:55;;;;;;;32.53;6.33;;;10.10;99.90;;;;;;5035411;28;20036;-75
2023/05/26 03:49:23;;;;;;;32.03;6.57;;;10.10;99.90;;;;;;5052202;28;20021;-75
2023/05/26 03:51:52;;;;;;;31.07;6.73;;;10.20;99.90;;;;;;5036557;28;20033;-75
2023/05/26 03:54:17;;;;;;;31.27;6.97;;;10.40;99.90;;;;;;5038324;28;20017;-75
2023/05/26 03:56:48;;;;;;;29.30;6.47;;;10.00;99.90;;;;;;5038181;28;20029;-75
2023/05/26 03:59:24;;;;;;;31.60;6.50;;;10.10;99.90;;;;;;5054809;28;20017;-75
2023/05/26 04:01:50;;;;;;;35.73;6.23;;;9.80;99.90;;;;;;5038603;28;20052;-75
2023/05/26 04:04:27;;;;;;;32.10;6.40;;;10.30;99.90;;;;;;5056186;28;20030;-75
2023/05/26 04:06:56;;;;;;;25.13;6.83;;;9.90;99.90;;;;;;5054715;28;20059;-75
2023/05/26 04:09:39;;;;;;;31.50;6.33;;;10.00;99.90;;;;;;5037452;28;20026;-77
2023/05/26 04:12:10;;;;;;;28.20;6.47;;;9.90;99.90;;;;;;5055378;28;20045;-77
2023/05/26 04:14:41;;;;;;;28.97;5.77;;;9.90;99.90;;;;;;5054157;28;20018;-77
2023/05/26 04:17:06;;;;;;;27.77;6.70;;;9.90;99.90;;;;;;5054924;28;20033;-75
2023/05/26 04:19:50;;;;;;;35.57;6.33;;;10.00;99.90;;;;;;5037570;28;20089;-75
2023/05/26 04:22:21;;;;;;;31.73;6.53;;;10.30;99.90;;;;;;5055920;28;20039;-75
2023/05/26 04:24:47;;;;;;;32.30;6.73;;;9.90;99.90;;;;;;5038479;28;20037;-75
2023/05/26 04:27:17;;;;;;;26.57;6.20;;;9.90;99.90;;;;;;5038067;28;20191;-75
2023/05/26 04:29:45;;;;;;;37.90;7.63;;;9.70;99.90;;;;;;5038478;28;20025;-75
2023/05/26 04:32:11;;;;;;;43.00;8.27;;;9.90;99.90;;;;;;5037750;28;20021;-75
2023/05/26 04:34:44;;;;;;;44.97;8.47;;;9.90;99.90;;;;;;5037338;28;20021;-75
2023/05/26 04:37:12;;;;;;;32.33;8.10;;;9.90;99.90;;;;;;5055073;28;20037;-75
2023/05/26 04:39:44;;;;;;;29.43;8.50;;;10.00;99.90;;;;;;5038264;28;20033;-75
2023/05/26 04:42:12;;;;;;;31.33;7.13;;;9.60;99.90;;;;;;5037631;28;20025;-76
2023/05/26 04:44:40;;;;;;;32.37;7.43;;;9.80;99.90;;;;;;5053570;28;20025;-76
2023/05/26 04:47:08;;;;;;;37.47;8.10;;;9.80;99.90;;;;;;5038503;28;20022;-75
2023/05/26 04:49:42;;;;;;;34.83;8.97;;;9.90;99.90;;;;;;5055225;28;20018;-76
2023/05/26 04:52:20;;;;;;;32.33;8.63;;;10.00;99.90;;;;;;5038227;28;20026;-75
2023/05/26 04:54:53;;;;;;;41.30;10.07;;;9.90;99.90;;;;;;5054025;28;20039;-75
2023/05/26 04:57:35;;;;;;;31.80;9.30;;;9.90;99.90;;;;;;5037320;28;20025;-75
2023/05/26 05:00:05;;;;;;;44.80;9.27;;;10.00;99.90;;;;;;5053837;28;20283;-75
2023/05/26 05:02:34;;;;;;;42.07;11.00;;;10.10;99.90;;;;;;5053770;28;20299;-74
2023/05/26 05:05:07;;;;;;;34.97;9.93;;;10.00;99.90;;;;;;5036976;28;20036;-74
2023/05/26 05:07:38;;;;;;;35.07;8.77;;;10.00;99.90;;;;;;5054978;28;20029;-75
2023/05/26 05:10:07;;;;;;;41.87;10.40;;;10.10;99.90;;;;;;5053397;28;20036;-75
2023/05/26 05:12:40;;;;;;;32.80;9.83;;;10.10;99.90;;;;;;5037512;28;20020;-75
2023/05/26 05:15:07;;;;;;;40.57;10.97;;;10.10;99.90;;;;;;5036833;28;20040;-76
2023/05/26 05:17:40;;;;;;;42.87;10.60;;;10.10;99.90;;;;;;5053657;28;20113;-75
2023/05/26 05:20:09;;;;;;;38.00;10.37;;;10.20;99.90;;;;;;5036472;28;20033;-76
2023/05/26 05:22:48;;;;;;;41.77;11.33;;;10.20;99.90;;;;;;5036602;28;20028;-75
2023/05/26 05:25:27;;;;;;;42.07;10.60;;;10.20;99.90;;;;;;5036876;28;20013;-74
2023/05/26 05:27:54;;;;;;;36.30;10.90;;;10.20;99.90;;;;;;5054316;28;20093;-75
2023/05/26 05:30:22;;;;;;;35.37;11.13;;;10.00;99.90;;;;;;5035556;28;20014;-74
2023/05/26 05:32:48;;;;;;;32.53;9.97;;;10.20;99.90;;;;;;5053811;28;20032;-75
2023/05/26 05:35:14;;;;;;;32.37;11.03;;;10.10;99.90;;;;;;5053077;28;20085;-75
2023/05/26 05:37:42;;;;;;;36.47;11.57;;;10.20;99.90;;;;;;5036872;28;20080;-76
2023/05/26 05:40:11;;;;;;;35.37;10.77;;;10.40;99.90;;;;;;5036212;28;20018;-75
2023/05/26 05:42:45;;;;;;;39.93;11.00;;;10.40;99.90;;;;;;5035230;28;20035;-75
2023/05/26 05:45:14;;;;;;;43.43;11.13;;;10.40;99.90;;;;;;5034735;28;20071;-75
2023/05/26 05:47:42;;;;;;;36.40;11.90;;;10.50;99.90;;;;;;5034581;28;20034;-75
2023/05/26 05:50:15;;;;;;;38.53;10.93;;;10.60;99.90;;;;;;5035418;28;20036;-75
2023/05/26 05:52:44;;;;;;;39.43;10.43;;;10.60;99.90;;;;;;5051924;28;20231;-75
2023/05/26 05:55:10;;;;;;;43.97;11.57;;;10.60;99.90;;;;;;5035112;28;20075;-75
2023/05/26 05:57:38;;;;;;;45.80;11.17;;;10.60;99.90;;;;;;5035180;28;20286;-75
2023/05/26 06:00:09;;;;;;;42.83;12.20;;;10.50;99.90;;;;;;5035676;28;20093;-75
2023/05/26 06:02:48;;;;;;;40.07;10.97;;;10.70;99.90;;;;;;5035404;28;20140;-75
2023/05/26 06:05:13;;;;;;;36.43;11.73;;;10.60;99.90;;;;;;5052074;28;20017;-75
2023/05/26 06:10:11;;;;;;;41.35;13.18;;;10.90;99.90;;;;;;5032305;28;20049;-75
2023/05/26 06:12:42;;;;;;;48.93;13.07;;;11.00;99.90;;;;;;5016658;28;20018;-75
2023/05/26 06:15:08;;;;;;;38.37;12.77;;;11.10;99.90;;;;;;5014431;28;20026;-75
2023/05/26 06:17:36;;;;;;;38.90;12.00;;;10.90;99.90;;;;;;5015601;28;20049;-74
2023/05/26 06:20:02;;;;;;;36.03;12.90;;;10.90;99.90;;;;;;5015710;28;20045;-75
2023/05/26 06:22:30;;;;;;;46.10;13.07;;;10.90;99.90;;;;;;5015480;28;20034;-75
2023/05/26 06:24:56;;;;;;;38.93;11.83;;;11.00;99.90;;;;;;5014900;28;20057;-75
2023/05/26 06:27:24;;;;;;;34.87;12.20;;;11.00;99.90;;;;;;5031190;28;20101;-75
2023/05/26 06:29:49;;;;;;;31.23;11.07;;;11.10;99.90;;;;;;5014119;28;20022;-75
2023/05/26 06:32:25;;;;;;;42.10;12.37;;;11.30;99.90;;;;;;5014885;28;20476;-75
2023/05/26 06:34:51;;;;;;;50.73;13.87;;;11.40;99.90;;;;;;5031482;28;20042;-75
2023/05/26 06:37:26;;;;;;;41.20;12.47;;;11.40;99.90;;;;;;5014434;28;20106;-75
2023/05/26 06:40:14;;;;;;;43.77;12.30;;;11.30;99.90;;;;;;5032154;28;20026;-75
2023/05/26 06:42:42;;;;;;;37.57;12.07;;;11.50;99.90;;;;;;5014742;28;20022;-75
2023/05/26 06:45:17;;;;;;;33.67;10.80;;;11.60;99.90;;;;;;5031359;28;20201;-75
2023/05/26 06:47:48;;;;;;;32.17;12.13;;;11.70;99.90;;;;;;5032012;28;20506;-75
2023/05/26 06:50:14;;;;;;;35.47;12.33;;;11.80;99.90;;;;;;5031122;28;20379;-75
2023/05/26 06:52:45;;;;;;;42.00;13.57;;;11.80;99.90;;;;;;5031885;28;20026;-75
2023/05/26 06:55:23;;;;;;;41.87;11.57;;;11.80;99.90;;;;;;5013888;28;21302;-75
2023/05/26 06:58:00;;;;;;;45.57;11.77;;;11.90;99.90;;;;;;5030970;28;20354;-75
2023/05/26 07:00:49;;;;;;;;;;;;;;;;;;;;;
2023/05/26 07:03:18;;;;;;;37.67;11.80;;;12.10;99.90;;;;;;5030788;28;20046;-75
2023/05/26 07:05:50;;;;;;;39.67;12.10;;;12.10;99.90;;;;;;5013778;28;20599;-76
2023/05/26 07:08:16;;;;;;;34.07;11.67;;;12.20;99.90;;;;;;5013304;28;20042;-75
2023/05/26 07:10:41;;;;;;;32.47;11.87;;;12.30;99.90;;;;;;5028364;28;20132;-75
2023/05/26 07:13:10;;;;;;;42.03;11.80;;;12.30;99.90;;;;;;5013885;28;20029;-76
2023/05/26 07:15:35;;;;;;;35.77;11.77;;;12.40;99.90;;;;;;5031089;28;20099;-76
2023/05/26 07:18:01;;;;;;;44.53;12.03;;;12.20;99.90;;;;;;5014171;28;20043;-75
2023/05/26 07:20:29;;;;;;;35.67;12.47;;;12.20;99.90;;;;;;5014476;28;20026;-75
2023/05/26 07:22:55;;;;;;;42.77;13.40;;;12.10;99.90;;;;;;5014525;28;20057;-76
2023/05/26 07:25:26;;;;;;;37.20;11.13;;;12.20;99.90;;;;;;5015156;28;20014;-76
2023/05/26 07:27:52;;;;;;;39.60;11.20;;;12.10;99.90;;;;;;5034102;28;20049;-76
2023/05/26 07:30:18;;;;;;;37.87;11.87;;;12.20;99.90;;;;;;5035452;28;20029;-78
2023/05/26 07:32:44;;;;;;;40.83;13.20;;;12.30;99.90;;;;;;5037133;28;20085;-75
2023/05/26 07:35:10;;;;;;;37.57;11.93;;;12.40;99.90;;;;;;5033711;28;20021;-77
2023/05/26 07:37:36;;;;;;;34.20;11.80;;;12.40;99.90;;;;;;5038487;28;20029;-76
2023/05/26 07:40:07;;;;;;;43.13;12.93;;;12.50;99.90;;;;;;5033712;28;20018;-75
2023/05/26 07:42:35;;;;;;;38.27;11.50;;;12.50;99.90;;;;;;5017327;28;20022;-75
2023/05/26 07:45:07;;;;;;;33.80;10.97;;;12.60;99.90;;;;;;5017087;28;20038;-75
2023/05/26 07:47:34;;;;;;;39.22;12.52;;;12.60;99.90;;;;;;5033995;28;20026;-75
2023/05/26 07:50:00;;;;;;;31.53;10.97;;;12.60;99.90;;;;;;5035273;28;20025;-78
2023/05/26 07:52:34;;;;;;;33.23;11.17;;;12.60;99.90;;;;;;5017070;28;20045;-77
2023/05/26 07:55:02;;;;;;;44.07;11.27;;;12.60;99.90;;;;;;5034425;28;20026;-76
2023/05/26 07:57:28;;;;;;;46.97;12.67;;;12.70;99.90;;;;;;5034818;28;20099;-75
2023/05/26 07:59:53;;;;;;;40.90;11.87;;;12.70;99.90;;;;;;5017170;28;20010;-75
2023/05/26 08:02:22;;;;;;;34.33;10.97;;;12.60;99.90;;;;;;5017794;28;20029;-76
2023/05/26 08:04:53;;;;;;;30.67;11.27;;;12.60;99.90;;;;;;5017416;28;20037;-76
2023/05/26 08:07:19;;;;;;;35.30;12.17;;;12.60;99.90;;;;;;5021263;28;20025;-75
2023/05/26 08:09:47;;;;;;;40.77;11.67;;;12.60;99.90;;;;;;5016486;28;20038;-76
2023/05/26 08:12:13;;;;;;;33.70;11.07;;;12.60;99.90;;;;;;5017246;28;20045;-76
2023/05/26 08:14:39;;;;;;;40.67;11.93;;;12.70;99.90;;;;;;5017021;28;20017;-75
2023/05/26 08:17:05;;;;;;;44.43;13.00;;;12.70;99.90;;;;;;5033610;28;20056;-76
2023/05/26 08:19:33;;;;;;;36.00;12.33;;;12.70;99.90;;;;;;5016045;28;20022;-76
2023/05/26 08:21:59;;;;;;;33.80;12.23;;;12.80;99.90;;;;;;5016771;28;20065;-79
2023/05/26 08:24:25;;;;;;;42.30;12.27;;;12.70;99.90;;;;;;5017231;28;20060;-76
2023/05/26 08:26:51;;;;;;;33.83;11.63;;;12.70;99.90;;;;;;5017047;28;20026;-76
2023/05/26 08:29:20;;;;;;;35.57;13.03;;;12.70;99.90;;;;;;5017282;28;20038;-76
2023/05/26 08:31:46;;;;;;;34.97;11.40;;;12.80;99.90;;;;;;5017066;28;20024;-76
2023/05/26 08:34:12;;;;;;;51.20;13.20;;;12.70;99.90;;;;;;5034217;28;20046;-76
2023/05/26 08:36:40;;;;;;;45.93;12.47;;;12.80;99.90;;;;;;5016012;28;20173;-77
2023/05/26 08:39:08;;;;;;;37.87;12.03;;;12.80;99.90;;;;;;5033366;28;20014;-77
2023/05/26 08:41:55;;;;;;;32.70;11.73;;;12.90;99.90;;;;;;5032585;28;20090;-76
2023/05/26 08:44:30;;;;;;;46.77;13.43;;;13.00;99.90;;;;;;5016206;28;20034;-75
2023/05/26 08:47:01;;;;;;;41.33;13.50;;;13.00;99.90;;;;;;5034204;28;20046;-76
2023/05/26 08:49:30;;;;;;;41.97;13.23;;;12.90;99.90;;;;;;5016971;28;20025;-75
2023/05/26 08:52:02;;;;;;;36.50;13.37;;;13.00;99.90;;;;;;5016918;28;20057;-76
2023/05/26 08:54:28;;;;;;;36.25;12.30;;;13.00;99.90;;;;;;5016667;28;20022;-78
2023/05/26 08:56:55;;;;;;;87.10;19.40;;;13.10;99.90;;;;;;5032235;28;20041;-76
2023/05/26 08:59:22;;;;;;;32.77;12.73;;;13.10;99.90;;;;;;5033260;28;21476;-77
2023/05/26 09:01:47;;;;;;;35.70;12.43;;;13.00;99.90;;;;;;5033915;28;20010;-75
2023/05/26 09:04:13;;;;;;;32.50;11.97;;;13.00;99.90;;;;;;5015563;28;20022;-76
2023/05/26 09:06:44;;;;;;;45.50;14.47;;;13.20;99.90;;;;;;5015570;28;20026;-75
2023/05/26 09:09:10;;;;;;;44.50;12.07;;;13.20;99.90;;;;;;5032197;28;20030;-75
2023/05/26 09:11:42;;;;;;;30.37;10.63;;;13.20;99.90;;;;;;5033398;28;20050;-77
2023/05/26 09:14:08;;;;;;;40.27;11.77;;;13.40;99.90;;;;;;5015927;28;20045;-75
2023/05/26 09:16:37;;;;;;;36.17;10.63;;;13.60;99.90;;;;;;5015192;28;20034;-75
2023/05/26 09:19:03;;;;;;;36.70;12.40;;;13.50;99.90;;;;;;5016321;28;20018;-75
2023/05/26 09:21:34;;;;;;;35.10;11.77;;;13.60;99.90;;;;;;5015119;28;20049;-75
2023/05/26 09:24:00;;;;;;;34.80;10.63;;;13.60;99.90;;;;;;5015057;28;20030;-75
2023/05/26 09:26:29;;;;;;;39.70;11.73;;;13.60;99.90;;;;;;5015491;28;20044;-75
2023/05/26 09:28:55;;;;;;;41.10;12.17;;;13.60;99.90;;;;;;5014992;28;20208;-76
2023/05/26 09:31:46;;;;;;;35.30;11.20;;;13.70;99.90;;;;;;5032020;28;20029;-76
2023/05/26 09:34:14;;;;;;;33.77;11.23;;;13.70;99.90;;;;;;5032621;28;20017;-76
2023/05/26 09:36:40;;;;;;;42.77;12.10;;;13.80;99.90;;;;;;5030924;28;20050;-76
2023/05/26 09:39:12;;;;;;;29.10;11.30;;;13.80;99.90;;;;;;5014201;28;20018;-76
2023/05/26 09:41:42;;;;;;;31.73;11.13;;;13.90;99.90;;;;;;5014430;28;20484;-76
2023/05/26 09:44:21;;;;;;;34.07;9.90;;;14.00;99.90;;;;;;5013785;28;20026;-75
2023/05/26 09:46:47;;;;;;;34.03;10.37;;;14.00;99.90;;;;;;5031270;28;20029;-76
2023/05/26 09:49:20;;;;;;;34.70;11.13;;;14.00;99.90;;;;;;5014092;28;20049;-76
2023/05/26 09:51:57;;;;;;;33.93;9.63;;;14.10;99.90;;;;;;5014433;28;20025;-76
2023/05/26 09:54:23;;;;;;;27.37;9.30;;;14.10;99.90;;;;;;5014605;28;20056;-77
2023/05/26 09:57:01;;;;;;;27.33;9.30;;;14.20;99.90;;;;;;5014309;28;20042;-75
2023/05/26 09:59:37;;;;;;;32.17;10.10;;;14.30;99.90;;;;;;5030512;28;20021;-75
2023/05/26 10:02:21;;;;;;;39.33;11.50;;;14.40;99.90;;;;;;5014121;28;20036;-76
2023/05/26 10:04:49;;;;;;;35.17;9.90;;;14.40;99.90;;;;;;5014215;28;20022;-77
2023/05/26 10:07:19;;;;;;;34.60;9.97;;;14.50;99.90;;;;;;5030858;28;20041;-76
2023/05/26 10:09:52;;;;;;;36.47;10.30;;;14.60;99.90;;;;;;5013680;28;20033;-76
2023/05/26 10:12:22;;;;;;;;;;;14.60;99.90;;;;;;5014241;28;20021;-76
2023/05/26 10:14:49;;;;;;;27.48;8.55;;;14.60;99.90;;;;;;5033261;28;19947;-76
2023/05/26 10:17:26;;;;;;;25.57;8.33;;;14.70;99.90;;;;;;4997233;28;20042;-76
2023/05/26 10:19:53;;;;;;;29.77;9.63;;;14.80;99.90;;;;;;5013407;28;20036;-76
2023/05/26 10:22:58;;;;;;;30.05;9.00;;;15.00;99.90;;;;;;5012491;28;20022;-76
2023/05/26 10:25:31;;;;;;;36.53;10.07;;;15.00;99.90;;;;;;5030230;28;20046;-76
2023/05/26 10:28:21;;;;;;;34.85;8.70;;;15.10;99.90;;;;;;5014370;28;20010;-75
2023/05/26 10:30:46;;;;;;;28.75;9.50;;;15.20;99.90;;;;;;5030532;28;20026;-78
2023/05/26 10:33:19;;;;;;;29.90;9.32;;;15.30;99.90;;;;;;5014472;28;20101;-76
2023/05/26 10:35:59;;;;;;;32.00;10.20;;;15.40;99.90;;;;;;5030511;28;20105;-76
2023/05/26 10:38:35;;;;;;;32.47;10.27;;;15.30;99.90;;;;;;5014324;28;20037;-78
2023/05/26 10:41:01;;;;;;;29.58;9.25;;;15.30;99.90;;;;;;5030409;28;20026;-75
2023/05/26 10:43:32;;;;;;;25.80;8.60;;;15.40;99.90;;;;;;5032734;28;20022;-75
2023/05/26 10:46:02;;;;;;;34.08;9.70;;;15.40;99.90;;;;;;5013906;28;20021;-77
2023/05/26 10:48:56;;;;;;;26.02;8.82;;;15.50;99.90;;;;;;5032246;28;20025;-77
2023/05/26 10:51:30;;;;;;;31.67;8.45;;;15.40;99.90;;;;;;5012647;28;20034;-77
2023/05/26 10:54:14;;;;;;;33.13;8.80;;;15.50;99.90;;;;;;5013204;28;20038;-77
2023/05/26 10:56:43;;;;;;;25.73;7.63;;;15.50;99.90;;;;;;5013639;28;20040;-78
2023/05/26 10:59:22;;;;;;;26.80;7.68;;;15.70;99.90;;;;;;5013129;28;20038;-76
2023/05/26 11:01:54;;;;;;;32.97;8.23;;;15.80;99.90;;;;;;5033953;28;20038;-76
2023/05/26 11:04:21;;;;;;;25.80;8.43;;;15.90;99.90;;;;;;5035010;28;20041;-77
2023/05/26 11:06:59;;;;;;;29.63;7.95;;;16.00;99.90;;;;;;5035379;28;20032;-75
2023/05/26 11:09:29;;;;;;;25.90;7.65;;;16.10;99.90;;;;;;5034629;28;20052;-77
2023/05/26 11:11:59;;;;;;;28.58;8.50;;;16.10;99.90;;;;;;5019521;28;20041;-75
2023/05/26 11:14:30;;;;;;;36.15;8.27;;;16.10;99.90;;;;;;5035643;28;20327;-76
2023/05/26 11:17:01;;;;;;;30.27;8.40;;;16.10;99.90;;;;;;5019257;28;20084;-76
2023/05/26 11:19:38;;;;;;;24.77;7.55;;;16.20;99.90;;;;;;5019309;28;20018;-75
2023/05/26 11:22:07;;;;;;;28.33;7.30;;;16.40;99.90;;;;;;5036477;28;20029;-76
2023/05/26 11:24:34;;;;;;;26.90;7.68;;;16.50;99.90;;;;;;5036478;28;20014;-76
2023/05/26 11:27:01;;;;;;;27.05;8.23;;;16.50;99.90;;;;;;5018899;28;20271;-76
2023/05/26 11:29:30;;;;;;;30.33;8.25;;;16.60;99.90;;;;;;5019251;28;20077;-77
2023/05/26 11:31:56;;;;;;;25.23;7.53;;;16.60;99.90;;;;;;5057376;23;20030;-76
2023/05/26 11:34:24;;;;;;;28.23;7.70;;;16.80;99.90;;;;;;5032017;28;20117;-81
2023/05/26 11:36:54;;;;;;;24.95;8.20;;;16.80;99.90;;;;;;5069651;23;20051;-76
2023/05/26 11:39:41;;;;;;;24.15;7.38;;;16.90;99.90;;;;;;5041380;23;20065;-77
2023/05/26 11:42:09;;;;;;;29.17;8.55;;;17.00;99.90;;;;;;5014113;28;20033;-79
2023/05/26 11:44:55;;;;;;;33.25;8.43;;;16.90;99.90;;;;;;5079589;23;20713;-78
2023/05/26 11:47:22;;;;;;;27.00;7.40;;;17.00;99.90;;;;;;5257290;22;20052;-76
2023/05/26 11:49:52;;;;;;;30.15;7.43;;;17.10;99.90;;;;;;5367994;22;20048;-76
2023/05/26 11:52:23;;;;;;;28.70;8.30;;;17.20;99.90;;;;;;5038719;28;20362;-77
2023/05/26 11:54:49;;;;;;;24.80;7.93;;;17.30;99.90;;;;;;5057309;28;20143;-76
2023/05/26 11:57:26;;;;;;;26.52;8.23;;;17.30;99.90;;;;;;5036520;28;20046;-76
2023/05/26 11:59:52;;;;;;;24.95;7.55;;;17.30;99.90;;;;;;5038263;28;20021;-76
2023/05/26 12:02:18;;;;;;;24.70;7.88;;;17.40;99.90;;;;;;5055266;28;20021;-76
2023/05/26 12:04:44;;;;;;;23.40;6.90;;;17.40;99.90;;;;;;5056374;28;20056;-75
2023/05/26 12:07:10;;;;;;;29.15;7.18;;;17.50;99.90;;;;;;5036970;28;20059;-77
2023/05/26 12:12:35;;;;;;;;;;;;;;;;;;;;;
2023/05/26 12:15:05;;;;;;;23.20;7.55;;;18.00;99.90;;;;;;5056340;28;20051;-77
2023/05/26 12:17:31;;;;;;;25.92;7.20;;;18.00;99.90;;;;;;5056122;28;20033;-75
2023/05/26 12:19:58;;;;;;;21.50;6.35;;;18.00;99.90;;;;;;5038839;28;20022;-76
2023/05/26 12:22:30;;;;;;;22.33;6.53;;;18.00;99.90;;;;;;5038046;28;20032;-76
2023/05/26 12:25:00;;;;;;;21.42;6.38;;;18.00;99.90;;;;;;5055416;28;20036;-76
2023/05/26 12:27:37;;;;;;;20.42;6.18;;;18.10;99.90;;;;;;5039185;28;20048;-77
2023/05/26 12:30:20;;;;;;;18.23;6.45;;;18.50;99.90;;;;;;5050248;28;20105;-76
2023/05/26 12:32:46;;;;;;;35.20;7.78;;;18.70;99.90;;;;;;5038151;28;20108;-77
2023/05/26 12:35:14;;;;;;;19.38;7.28;;;18.50;99.90;;;;;;5038419;28;20051;-77
2023/05/26 12:37:57;;;;;;;25.25;6.70;;;18.50;99.90;;;;;;5038030;28;20025;-76
2023/05/26 12:40:23;;;;;;;24.10;6.35;;;18.40;99.90;;;;;;5038859;28;20103;-75
2023/05/26 12:42:48;;;;;;;25.23;6.82;;;18.60;99.90;;;;;;5038023;28;20022;-77
2023/05/26 12:45:14;;;;;;;25.30;7.15;;;18.60;99.90;;;;;;5050416;28;20017;-77
2023/05/26 12:47:40;;;;;;;23.55;6.78;;;18.70;99.90;;;;;;5055422;28;20048;-77
2023/05/26 12:50:12;;;;;;;19.70;6.47;;;18.80;99.90;;;;;;5037808;28;20026;-78
2023/05/26 12:52:41;;;;;;;;;;;18.80;99.90;;;;;;5055697;28;20028;-76
2023/05/26 12:55:07;;;;;;;24.67;6.40;;;19.00;99.90;;;;;;5038670;28;20089;-75
2023/05/26 12:57:32;;;;;;;26.98;6.95;;;19.20;99.90;;;;;;5055613;28;20043;-77
2023/05/26 12:59:58;;;;;;;26.73;7.32;;;19.20;99.90;;;;;;5038185;28;20131;-77
2023/05/26 13:02:24;;;;;;;20.77;6.90;;;19.20;99.90;;;;;;5038589;28;20025;-76
2023/05/26 13:04:49;;;;;;;20.80;6.60;;;19.40;99.90;;;;;;5056351;28;20077;-74
2023/05/26 13:07:15;;;;;;;30.75;6.78;;;19.60;99.90;;;;;;5038011;28;20052;-76
2023/05/26 13:09:41;;;;;;;25.10;6.95;;;19.60;99.90;;;;;;5039076;28;20093;-76